Terminal Aerodrome Forecast
Issued by NWS

Home | Current Version | Previous Version | Graphics & Text | Print | Product List | Glossary On
Versions: 1 2 3 4 5 6 7 8 9 10 11 12 13 14 15 16 17 18 19
532
FTUS43 KABR 262320
TAFMBG
TAF
KMBG 262320Z 2700/2724 12009KT P6SM FEW100 SCT200
     FM270300 05010KT P6SM VCTS BKN100CB BKN200
     FM270600 03007KT P6SM BKN200
     FM271000 03007KT P6SM BKN030
     FM271200 02008KT P6SM BKN015
     FM271300 03009KT P6SM BKN020
     FM271400 03009KT P6SM BKN050=

USA.gov is the U.S. government's official web portal to all federal, state and local government web resources and services.